createdAt,value
2022-10-16T00:01:40.376Z,100123.31
2022-10-16T00:04:09.129Z,100122.94
2022-10-16T00:06:37.514Z,100119.72
2022-10-16T00:09:07.621Z,100121.75
2022-10-16T00:11:38.938Z,100123.22
2022-10-16T00:14:12.042Z,100122.72
2022-10-16T00:16:40.818Z,100129.78
2022-10-16T00:19:09.052Z,100126.09
2022-10-16T00:21:37.300Z,100131.31
2022-10-16T00:24:25.667Z,100141.06
2022-10-16T00:26:53.903Z,100144.47
2022-10-16T00:29:22.385Z,100146.03
2022-10-16T00:31:50.781Z,100150.28
2022-10-16T00:34:18.954Z,100159.37
2022-10-16T00:36:47.543Z,100164.78
2022-10-16T00:39:15.922Z,100175.09
2022-10-16T00:41:45.431Z,100170.38
2022-10-16T00:44:50.762Z,100172.75
2022-10-16T00:47:24.728Z,100163.34
2022-10-16T00:49:57.969Z,100160.44
2022-10-16T00:52:27.134Z,100156.91
2022-10-16T00:54:56.965Z,100158.25
2022-10-16T00:57:27.317Z,100155.37
2022-10-16T01:02:24.334Z,100155.53
2022-10-16T01:04:55.295Z,100150.13
2022-10-16T01:07:36.047Z,100152.00
2022-10-16T01:10:11.930Z,100143.19
2022-10-16T01:12:47.992Z,100155.16
2022-10-16T01:15:23.098Z,100151.12
2022-10-16T01:17:59.058Z,100152.59
2022-10-16T01:20:31.753Z,100158.47
2022-10-16T01:23:09.737Z,100156.25
2022-10-16T01:25:57.934Z,100159.28
2022-10-16T01:28:33.170Z,100156.91
2022-10-16T01:31:02.729Z,100162.44
2022-10-16T01:33:38.386Z,100173.31
2022-10-16T01:36:13.773Z,100168.53
2022-10-16T01:38:43.384Z,100175.25
2022-10-16T01:41:15.250Z,100181.09
2022-10-16T01:43:49.664Z,100181.56
2022-10-16T01:46:20.917Z,100188.12
2022-10-16T01:48:50.587Z,100194.28
2022-10-16T01:51:20.448Z,100200.00
2022-10-16T01:53:54.258Z,100194.91
2022-10-16T01:56:25.098Z,100203.97
2022-10-16T01:58:57.688Z,100197.91
2022-10-16T02:01:29.188Z,100185.81
2022-10-16T02:04:01.046Z,100175.59
2022-10-16T02:06:30.606Z,100167.69
2022-10-16T02:08:59.146Z,100174.75
2022-10-16T02:11:27.631Z,100175.28
2022-10-16T02:14:03.471Z,100172.44
2022-10-16T02:16:36.538Z,100168.72
2022-10-16T02:19:05.504Z,100183.88
2022-10-16T02:21:42.801Z,100187.28
2022-10-16T02:24:20.125Z,100190.31
2022-10-16T02:26:54.321Z,100190.16
2022-10-16T02:29:27.496Z,100196.37
2022-10-16T02:32:00.386Z,100200.09
2022-10-16T02:34:32.251Z,100202.94
2022-10-16T02:37:02.252Z,100200.41
2022-10-16T02:39:31.798Z,100198.03
2022-10-16T02:41:59.959Z,100201.34
2022-10-16T02:44:29.717Z,100203.37
2022-10-16T02:46:57.858Z,100205.38
2022-10-16T02:49:26.022Z,100210.75
2022-10-16T02:51:54.479Z,100197.97
2022-10-16T02:54:22.601Z,100200.50
2022-10-16T02:56:50.794Z,100200.66
2022-10-16T02:59:19.345Z,100215.81
2022-10-16T03:01:48.776Z,100212.78
2022-10-16T03:04:16.870Z,100217.66
2022-10-16T03:06:45.276Z,100213.13
2022-10-16T03:09:13.373Z,100214.66
2022-10-16T03:11:41.492Z,100221.88
2022-10-16T03:14:09.978Z,100221.72
2022-10-16T03:16:38.116Z,100228.62
2022-10-16T03:19:07.662Z,100232.31
2022-10-16T03:21:36.258Z,100232.19
2022-10-16T03:24:04.664Z,100229.63
2022-10-16T03:26:32.741Z,100231.31
2022-10-16T03:29:01.195Z,100230.63
2022-10-16T03:31:29.325Z,100234.31
2022-10-16T03:33:57.878Z,100233.66
2022-10-16T03:36:27.598Z,100236.66
2022-10-16T03:38:55.830Z,100235.09
2022-10-16T03:41:24.062Z,100237.25
2022-10-16T03:43:52.596Z,100226.66
2022-10-16T03:46:20.772Z,100219.38
2022-10-16T03:48:48.887Z,100217.53
2022-10-16T03:51:17.353Z,100220.53
2022-10-16T03:53:46.865Z,100218.00
2022-10-16T03:56:15.041Z,100215.31
2022-10-16T03:58:43.577Z,100213.75
2022-10-16T04:01:11.821Z,100232.75
2022-10-16T04:03:40.315Z,100232.22
2022-10-16T04:06:08.441Z,100225.16
2022-10-16T04:08:37.607Z,100230.00
2022-10-16T04:11:07.830Z,100226.91
2022-10-16T04:13:35.987Z,100230.59
2022-10-16T04:16:04.189Z,100241.34
2022-10-16T04:18:32.663Z,100226.22
2022-10-16T04:21:04.963Z,100233.72
2022-10-16T04:23:33.836Z,100249.19
2022-10-16T04:26:02.166Z,100258.81
2022-10-16T04:28:31.756Z,100260.63
2022-10-16T04:31:00.211Z,100260.50
2022-10-16T04:33:28.257Z,100252.28
2022-10-16T04:36:00.271Z,100250.78
2022-10-16T04:38:29.362Z,100248.66
2022-10-16T04:40:57.758Z,100256.75
2022-10-16T04:43:26.176Z,100258.25
2022-10-16T04:45:56.030Z,100261.13
2022-10-16T04:48:24.634Z,100267.66
2022-10-16T04:50:55.143Z,100265.34
2022-10-16T04:53:24.335Z,100277.47
2022-10-16T04:55:52.624Z,100283.56
2022-10-16T04:58:20.832Z,100283.94
2022-10-16T05:00:49.288Z,100286.62
2022-10-16T05:03:18.905Z,100288.31
2022-10-16T05:05:48.297Z,100289.16
2022-10-16T05:08:17.537Z,100291.00
2022-10-16T05:10:46.713Z,100286.62
2022-10-16T05:13:14.926Z,100303.44
2022-10-16T05:15:43.421Z,100297.38
2022-10-16T05:18:11.586Z,100301.75
2022-10-16T05:20:41.047Z,100307.44
2022-10-16T05:23:11.212Z,100304.75
2022-10-16T05:25:39.678Z,100311.84
2022-10-16T05:28:07.789Z,100312.69
2022-10-16T05:30:36.486Z,100301.75
2022-10-16T05:33:04.750Z,100307.81
2022-10-16T05:35:32.941Z,100303.16
2022-10-16T05:38:02.662Z,100308.22
2022-10-16T05:40:30.739Z,100296.94
2022-10-16T05:42:58.915Z,100311.91
2022-10-16T05:45:27.470Z,100316.13
2022-10-16T05:47:55.592Z,100319.66
2022-10-16T05:50:23.726Z,100324.06
2022-10-16T05:52:52.175Z,100332.81
2022-10-16T05:55:21.744Z,100331.69
2022-10-16T05:57:49.925Z,100333.38
2022-10-16T06:00:18.413Z,100329.50
2022-10-16T06:02:47.011Z,100332.88
2022-10-16T06:05:15.458Z,100336.13
2022-10-16T06:07:43.687Z,100337.81
2022-10-16T06:10:12.066Z,100343.75
2022-10-16T06:12:41.571Z,100326.59
2022-10-16T06:15:10.637Z,100319.19
2022-10-16T06:17:40.814Z,100332.22
2022-10-16T06:20:23.332Z,100327.34
2022-10-16T06:22:52.090Z,100333.16
2022-10-16T06:25:20.392Z,100334.53
2022-10-16T06:28:00.557Z,100348.50
2022-10-16T06:30:29.974Z,100349.22
2022-10-16T06:32:58.180Z,100344.84
2022-10-16T06:35:26.377Z,100347.66
2022-10-16T06:37:55.253Z,100361.12
2022-10-16T06:40:23.560Z,100355.63
2022-10-16T06:42:53.386Z,100363.53
2022-10-16T06:45:22.281Z,100358.81
2022-10-16T06:47:50.379Z,100362.87
2022-10-16T06:50:19.043Z,100364.12
2022-10-16T06:52:47.527Z,100354.88
2022-10-16T06:55:16.226Z,100357.81
2022-10-16T06:57:44.910Z,100359.72
2022-10-16T07:00:15.364Z,100345.75
2022-10-16T07:02:43.541Z,100341.53
2022-10-16T07:05:11.613Z,100331.97
2022-10-16T07:07:42.926Z,100326.13
2022-10-16T07:10:11.107Z,100344.31
2022-10-16T07:12:39.523Z,100348.06
2022-10-16T07:15:08.658Z,100347.75
2022-10-16T07:17:38.353Z,100340.88
2022-10-16T07:20:08.167Z,100337.69
2022-10-16T07:22:36.756Z,100359.69
2022-10-16T07:25:06.046Z,100400.84
2022-10-16T07:27:35.164Z,100415.56
2022-10-16T07:30:06.484Z,100438.47
2022-10-16T07:32:38.766Z,100442.88
2022-10-16T07:35:08.177Z,100442.25
2022-10-16T07:37:39.631Z,100440.91
2022-10-16T07:40:23.117Z,100436.41
2022-10-16T07:42:59.749Z,100430.50
2022-10-16T07:45:28.010Z,100429.69
2022-10-16T07:47:58.250Z,100447.09
2022-10-16T07:50:26.512Z,100459.97
2022-10-16T07:52:54.672Z,100458.69
2022-10-16T07:55:23.175Z,100448.59
2022-10-16T07:57:51.586Z,100449.31
2022-10-16T08:00:20.107Z,100454.56
2022-10-16T08:02:48.543Z,100463.53
2022-10-16T08:05:18.291Z,100459.19
2022-10-16T08:07:50.621Z,100455.47
2022-10-16T08:10:20.637Z,100461.59
2022-10-16T08:12:48.923Z,100460.59
2022-10-16T08:15:17.409Z,100460.41
2022-10-16T08:17:46.100Z,100466.50
2022-10-16T08:20:14.313Z,100467.31
2022-10-16T08:22:43.994Z,100472.72
2022-10-16T08:25:12.669Z,100490.63
2022-10-16T08:27:40.878Z,100489.13
2022-10-16T08:30:10.887Z,100504.66
2022-10-16T08:32:39.475Z,100507.72
2022-10-16T08:35:08.094Z,100509.03
2022-10-16T08:37:36.449Z,100512.34
2022-10-16T08:40:08.835Z,100502.69
2022-10-16T08:42:49.794Z,100500.00
2022-10-16T08:45:32.849Z,100497.44
2022-10-16T08:48:12.863Z,100490.66
2022-10-16T08:50:42.806Z,100501.47
2022-10-16T08:53:18.646Z,100507.28
2022-10-16T08:55:52.362Z,100517.22
2022-10-16T08:58:22.474Z,100525.81
2022-10-16T09:00:55.201Z,100509.06
2022-10-16T09:03:35.701Z,100502.06
2022-10-16T09:06:19.588Z,100513.19
2022-10-16T09:09:00.766Z,100517.06
2022-10-16T09:11:46.607Z,100516.22
2022-10-16T09:14:37.505Z,100525.63
2022-10-16T09:17:22.070Z,100526.97
2022-10-16T09:19:55.145Z,100536.44
2022-10-16T09:22:28.879Z,100539.03
2022-10-16T09:25:01.431Z,100535.56
2022-10-16T09:27:31.347Z,100544.84
2022-10-16T09:30:00.279Z,100546.75
2022-10-16T09:32:30.781Z,100549.03
2022-10-16T09:34:59.478Z,100536.38
2022-10-16T09:37:28.483Z,100537.63
2022-10-16T09:39:57.809Z,100531.72
2022-10-16T09:42:32.413Z,100527.22
2022-10-16T09:45:02.007Z,100547.66
2022-10-16T09:47:32.454Z,100551.19
2022-10-16T09:50:03.192Z,100562.75
2022-10-16T09:52:32.933Z,100565.06
2022-10-16T09:55:02.846Z,100559.22
2022-10-16T09:57:32.026Z,100558.03
2022-10-16T10:00:02.049Z,100550.25
2022-10-16T10:02:36.984Z,100553.34
2022-10-16T10:05:08.018Z,100558.94
2022-10-16T10:07:45.098Z,100563.28
2022-10-16T10:10:22.588Z,100569.47
2022-10-16T10:12:55.610Z,100569.03
2022-10-16T10:15:27.812Z,100575.75
2022-10-16T10:17:57.471Z,100585.56
2022-10-16T10:20:28.614Z,100583.06
2022-10-16T10:22:57.718Z,100593.53
2022-10-16T10:25:44.754Z,100584.72
2022-10-16T10:28:52.434Z,100600.34
2022-10-16T10:31:29.718Z,100594.47
2022-10-16T10:34:07.189Z,100597.22
2022-10-16T10:36:38.867Z,100592.81
2022-10-16T10:39:14.051Z,100602.00
2022-10-16T10:42:09.444Z,100597.13
2022-10-16T10:45:04.998Z,100599.28
2022-10-16T10:47:47.506Z,100599.25
2022-10-16T10:50:24.993Z,100597.72
2022-10-16T10:53:02.798Z,100606.13
2022-10-16T10:55:41.697Z,100599.34
2022-10-16T10:58:35.123Z,100604.72
2022-10-16T11:01:10.521Z,100598.41
2022-10-16T11:06:59.454Z,100600.94
2022-10-16T11:09:36.754Z,100605.75
2022-10-16T11:12:13.440Z,100591.03
2022-10-16T11:14:48.492Z,100595.44
2022-10-16T11:17:24.039Z,100596.69
2022-10-16T11:20:00.682Z,100591.50
2022-10-16T11:22:35.422Z,100595.47
2022-10-16T11:25:15.244Z,100608.53
2022-10-16T11:27:47.348Z,100612.22
2022-10-16T11:30:20.809Z,100610.19
2022-10-16T11:33:02.853Z,100611.22
2022-10-16T11:35:42.975Z,100604.78
2022-10-16T11:38:17.708Z,100615.41
2022-10-16T11:40:50.174Z,100612.25
2022-10-16T11:43:24.069Z,100610.13
2022-10-16T11:45:55.960Z,100611.53
2022-10-16T11:48:32.325Z,100617.56
2022-10-16T11:51:11.375Z,100616.47
2022-10-16T11:53:48.005Z,100611.03
2022-10-16T11:56:18.950Z,100618.78
2022-10-16T11:58:57.385Z,100612.63
2022-10-16T12:01:34.814Z,100613.69
2022-10-16T12:04:22.597Z,100610.63
2022-10-16T12:06:58.552Z,100621.94
2022-10-16T12:09:29.580Z,100623.09
2022-10-16T12:11:58.074Z,100621.00
2022-10-16T12:14:57.290Z,100628.88
2022-10-16T12:17:29.127Z,100616.06
2022-10-16T12:20:02.891Z,100622.50
2022-10-16T12:22:38.022Z,100624.84
2022-10-16T12:25:21.298Z,100622.19
2022-10-16T12:27:57.035Z,100616.94
2022-10-16T12:30:29.978Z,100614.19
2022-10-16T12:33:03.422Z,100610.94
2022-10-16T12:35:38.844Z,100615.97
2022-10-16T12:40:46.807Z,100609.72
2022-10-16T12:43:29.801Z,100617.69
2022-10-16T12:46:04.754Z,100618.28
2022-10-16T12:48:48.173Z,100624.28
2022-10-16T12:51:28.117Z,100614.84
2022-10-16T12:54:06.236Z,100619.53
2022-10-16T12:56:47.913Z,100621.03
2022-10-16T12:59:28.897Z,100621.75
2022-10-16T13:02:17.949Z,100625.84
2022-10-16T13:04:59.470Z,100624.88
2022-10-16T13:07:43.781Z,100623.34
2022-10-16T13:10:24.577Z,100632.25
2022-10-16T13:13:19.048Z,100624.84
2022-10-16T13:16:03.584Z,100626.09
2022-10-16T13:18:46.083Z,100624.66
2022-10-16T13:21:27.073Z,100622.22
2022-10-16T13:24:04.837Z,100633.09
2022-10-16T13:26:44.911Z,100631.88
2022-10-16T13:29:17.278Z,100635.09
2022-10-16T13:31:46.370Z,100634.97
2022-10-16T13:34:17.960Z,100640.16
2022-10-16T13:36:48.561Z,100648.09
2022-10-16T13:39:22.801Z,100655.97
2022-10-16T13:42:08.085Z,100649.75
2022-10-16T13:44:42.789Z,100657.56
2022-10-16T13:47:19.481Z,100659.97
2022-10-16T13:49:48.690Z,100665.28
2022-10-16T13:52:22.576Z,100663.50
2022-10-16T13:54:50.974Z,100661.81
2022-10-16T13:57:27.254Z,100665.84
2022-10-16T13:59:56.468Z,100660.56
2022-10-16T14:02:28.922Z,100670.87
2022-10-16T14:04:59.659Z,100672.09
2022-10-16T14:07:30.775Z,100673.69
2022-10-16T14:10:03.134Z,100684.09
2022-10-16T14:12:33.512Z,100683.12
2022-10-16T14:15:03.021Z,100688.13
2022-10-16T14:17:34.460Z,100686.44
2022-10-16T14:20:07.691Z,100691.16
2022-10-16T14:22:38.488Z,100695.91
2022-10-16T14:25:27.574Z,100692.25
2022-10-16T14:30:35.990Z,100694.63
2022-10-16T14:33:06.436Z,100702.47
2022-10-16T14:35:37.444Z,100694.44
2022-10-16T14:38:07.713Z,100700.59
2022-10-16T14:40:39.024Z,100691.72
2022-10-16T14:43:08.890Z,100698.19
2022-10-16T14:45:37.739Z,100696.78
2022-10-16T14:48:19.555Z,100696.75
2022-10-16T14:50:48.628Z,100696.19
2022-10-16T14:53:17.229Z,100699.72
2022-10-16T14:55:45.930Z,100697.50
2022-10-16T14:58:18.794Z,100702.19
2022-10-16T15:00:47.696Z,100706.47
2022-10-16T15:03:16.298Z,100707.66
2022-10-16T15:05:44.469Z,100701.75
2022-10-16T15:08:13.443Z,100705.37
2022-10-16T15:10:44.680Z,100695.50
2022-10-16T15:13:14.828Z,100706.19
2022-10-16T15:15:46.995Z,100705.28
2022-10-16T15:18:20.838Z,100712.19
2022-10-16T15:20:51.237Z,100718.13
2022-10-16T15:23:21.219Z,100711.97
2022-10-16T15:25:51.692Z,100717.72
2022-10-16T15:28:20.758Z,100717.44
2022-10-16T15:30:52.447Z,100716.03
2022-10-16T15:33:23.910Z,100716.03
2022-10-16T15:35:53.719Z,100734.41
2022-10-16T15:38:23.841Z,100734.59
2022-10-16T15:40:52.634Z,100732.72
2022-10-16T15:43:20.712Z,100735.63
2022-10-16T15:46:01.455Z,100735.47
2022-10-16T15:48:29.894Z,100745.84
2022-10-16T15:50:58.229Z,100746.72
2022-10-16T15:53:26.431Z,100748.13
2022-10-16T15:55:54.503Z,100755.91
2022-10-16T15:58:23.016Z,100754.59
2022-10-16T16:00:58.137Z,100765.09
2022-10-16T16:03:26.527Z,100771.53
2022-10-16T16:05:54.799Z,100763.06
2022-10-16T16:08:22.984Z,100761.53
2022-10-16T16:11:00.171Z,100753.94
2022-10-16T16:13:28.336Z,100757.00
2022-10-16T16:15:58.648Z,100758.87
2022-10-16T16:18:26.965Z,100764.31
2022-10-16T16:20:55.714Z,100772.44
2022-10-16T16:23:24.303Z,100768.06
2022-10-16T16:26:06.905Z,100765.53
2022-10-16T16:28:35.679Z,100769.44
2022-10-16T16:31:05.486Z,100770.41
2022-10-16T16:33:34.427Z,100782.09
2022-10-16T16:36:05.212Z,100785.66
2022-10-16T16:38:34.764Z,100788.16
2022-10-16T16:41:13.687Z,100790.69
2022-10-16T16:43:41.904Z,100806.44
2022-10-16T16:46:11.938Z,100809.44
2022-10-16T16:48:40.625Z,100817.53
2022-10-16T16:51:10.127Z,100822.63
2022-10-16T16:53:38.746Z,100817.13
2022-10-16T16:56:07.931Z,100823.34
2022-10-16T16:58:36.809Z,100819.75
2022-10-16T17:01:19.528Z,100828.56
2022-10-16T17:03:52.702Z,100830.72
2022-10-16T17:06:22.397Z,100832.38
2022-10-16T17:08:51.673Z,100836.72
2022-10-16T17:11:21.861Z,100845.31
2022-10-16T17:13:53.996Z,100843.56
2022-10-16T17:16:27.144Z,100845.91
2022-10-16T17:18:57.204Z,100854.00
2022-10-16T17:21:26.848Z,100852.00
2022-10-16T17:23:55.039Z,100854.69
2022-10-16T17:26:23.460Z,100857.25
2022-10-16T17:28:54.241Z,100859.94
2022-10-16T17:31:24.597Z,100861.81
2022-10-16T17:33:53.112Z,100871.25
2022-10-16T17:36:23.857Z,100862.06
2022-10-16T17:38:52.671Z,100863.91
2022-10-16T17:41:23.980Z,100868.09
2022-10-16T17:43:55.342Z,100872.75
2022-10-16T17:46:24.879Z,100872.66
2022-10-16T17:48:56.031Z,100874.69
2022-10-16T17:51:30.594Z,100874.81
2022-10-16T17:54:01.169Z,100877.66
2022-10-16T17:56:31.067Z,100879.62
2022-10-16T17:59:01.962Z,100882.72
2022-10-16T18:01:32.844Z,100890.03
2022-10-16T18:04:04.696Z,100895.19
2022-10-16T18:06:34.731Z,100896.06
2022-10-16T18:09:05.465Z,100902.38
2022-10-16T18:11:33.629Z,100894.22
2022-10-16T18:14:02.802Z,100898.19
2022-10-16T18:16:34.480Z,100902.19
2022-10-16T18:19:03.296Z,100906.06
2022-10-16T18:21:32.077Z,100903.62
2022-10-16T18:24:01.753Z,100907.66
2022-10-16T18:26:30.084Z,100911.78
2022-10-16T18:29:00.709Z,100904.00
2022-10-16T18:31:29.300Z,100890.66
2022-10-16T18:33:58.634Z,100890.66
2022-10-16T18:36:30.697Z,100893.50
2022-10-16T18:39:01.543Z,100907.16
2022-10-16T18:41:32.687Z,100904.56
2022-10-16T18:44:00.917Z,100913.66
2022-10-16T18:46:30.101Z,100910.56
2022-10-16T18:49:00.451Z,100918.09
2022-10-16T18:51:30.813Z,100923.62
2022-10-16T18:54:02.694Z,100927.34
2022-10-16T18:56:32.998Z,100931.47
2022-10-16T18:59:03.349Z,100933.69
2022-10-16T19:01:33.175Z,100931.69
2022-10-16T19:04:03.541Z,100929.00
2022-10-16T19:06:34.364Z,100926.31
2022-10-16T19:09:05.147Z,100929.16
2022-10-16T19:11:36.794Z,100929.63
2022-10-16T19:14:09.264Z,100928.19
2022-10-16T19:16:38.149Z,100927.66
2022-10-16T19:19:08.028Z,100937.00
2022-10-16T19:21:39.873Z,100948.09
2022-10-16T19:24:12.393Z,100941.16
2022-10-16T19:26:42.102Z,100946.69
2022-10-16T19:29:11.211Z,100944.41
2022-10-16T19:31:39.796Z,100960.69
2022-10-16T19:34:09.782Z,100954.47
2022-10-16T19:36:39.602Z,100956.31
2022-10-16T19:39:15.093Z,100958.00
2022-10-16T19:41:44.240Z,100960.00
2022-10-16T19:44:15.378Z,100961.28
2022-10-16T19:46:49.869Z,100971.09
2022-10-16T19:49:21.986Z,100969.09
2022-10-16T19:51:59.269Z,100976.19
2022-10-16T19:54:32.224Z,100984.28
2022-10-16T19:57:06.522Z,100983.28
2022-10-16T19:59:59.941Z,100983.28
2022-10-16T20:02:30.423Z,100990.66
2022-10-16T20:05:04.235Z,101000.75
2022-10-16T20:07:34.994Z,100998.63
2022-10-16T20:10:06.199Z,100994.50
2022-10-16T20:12:34.346Z,100997.44
2022-10-16T20:15:05.939Z,101000.44
2022-10-16T20:17:37.496Z,101006.25
2022-10-16T20:20:12.724Z,101012.38
2022-10-16T20:23:04.603Z,101003.88
2022-10-16T20:25:39.262Z,101003.16
2022-10-16T20:28:29.509Z,101005.00
2022-10-16T20:34:00.157Z,101004.31
2022-10-16T20:36:30.643Z,100994.38
2022-10-16T20:39:08.325Z,100998.91
2022-10-16T20:41:41.759Z,101017.91
2022-10-16T20:44:13.277Z,101024.84
2022-10-16T20:50:16.542Z,101028.69
2022-10-16T20:52:45.307Z,101021.59
2022-10-16T20:55:16.161Z,101028.38
2022-10-16T20:58:09.627Z,101028.69
2022-10-16T21:00:40.726Z,101025.00
2022-10-16T21:03:13.085Z,101028.69
2022-10-16T21:05:44.937Z,101034.63
2022-10-16T21:08:13.640Z,101032.06
2022-10-16T21:10:45.389Z,101030.37
2022-10-16T21:13:17.110Z,101037.16
2022-10-16T21:15:47.000Z,101037.63
2022-10-16T21:18:15.349Z,101040.00
2022-10-16T21:20:49.056Z,101032.63
2022-10-16T21:23:25.016Z,101032.38
2022-10-16T21:25:55.558Z,101035.50
2022-10-16T21:28:25.086Z,101036.34
2022-10-16T21:30:58.759Z,101037.34
2022-10-16T21:33:43.742Z,101032.09
2022-10-16T21:36:15.623Z,101034.78
2022-10-16T21:41:40.499Z,101033.22
2022-10-16T21:44:10.423Z,101035.34
2022-10-16T21:46:44.852Z,101037.78
2022-10-16T21:49:30.656Z,101040.03
2022-10-16T21:51:59.451Z,101041.19
2022-10-16T21:54:28.410Z,101040.44
2022-10-16T21:56:57.160Z,101042.19
2022-10-16T21:59:26.098Z,101039.47
2022-10-16T22:01:56.254Z,101037.91
2022-10-16T22:04:25.587Z,101049.12
2022-10-16T22:06:56.628Z,101050.37
2022-10-16T22:09:35.603Z,101038.03
2022-10-16T22:12:08.706Z,101043.44
2022-10-16T22:14:44.555Z,101043.03
2022-10-16T22:17:16.324Z,101036.34
2022-10-16T22:19:56.929Z,101043.16
2022-10-16T22:22:25.253Z,101035.78
2022-10-16T22:24:54.668Z,101040.19
2022-10-16T22:27:26.383Z,101030.25
2022-10-16T22:29:55.427Z,101038.19
2022-10-16T22:32:25.023Z,101043.59
2022-10-16T22:34:53.232Z,101036.66
2022-10-16T22:37:21.609Z,101043.28
2022-10-16T22:39:49.795Z,101043.44
2022-10-16T22:42:17.940Z,101040.87
2022-10-16T22:44:46.410Z,101043.72
2022-10-16T22:47:14.492Z,101041.19
2022-10-16T22:49:44.120Z,101045.72
2022-10-16T22:52:12.608Z,101031.50
2022-10-16T22:54:40.799Z,101029.25
2022-10-16T22:57:08.885Z,101025.00
2022-10-16T22:59:37.318Z,101017.06
2022-10-16T23:02:05.505Z,101021.72
2022-10-16T23:04:33.754Z,101020.03
2022-10-16T23:07:03.471Z,101017.47
2022-10-16T23:09:31.580Z,101022.31
2022-10-16T23:11:59.658Z,101026.69
2022-10-16T23:14:28.075Z,101021.44
2022-10-16T23:16:56.236Z,101022.56
2022-10-16T23:19:24.746Z,101030.53
2022-10-16T23:21:53.126Z,101033.91
2022-10-16T23:24:23.067Z,101033.06
2022-10-16T23:26:51.501Z,101036.16
2022-10-16T23:29:20.100Z,101041.44
2022-10-16T23:31:48.187Z,101034.88
2022-10-16T23:34:16.364Z,101039.63
2022-10-16T23:36:45.739Z,101033.97
2022-10-16T23:39:14.405Z,101042.19
2022-10-16T23:41:43.998Z,101042.44
2022-10-16T23:44:12.529Z,101042.72
2022-10-16T23:46:40.633Z,101044.13
2022-10-16T23:49:09.019Z,101050.22
2022-10-16T23:51:37.710Z,101048.75
2022-10-16T23:54:05.857Z,101053.44
2022-10-16T23:56:34.018Z,101045.50
2022-10-16T23:59:03.794Z,101050.87
